createdAt,value
2023-03-15T00:01:46.412Z,97183.36
2023-03-15T00:04:16.647Z,97187.86
2023-03-15T00:06:46.791Z,97184.34
2023-03-15T00:09:17.071Z,97176.67
2023-03-15T00:11:47.352Z,97174.79
2023-03-15T00:14:17.556Z,97167.27
2023-03-15T00:16:47.976Z,97160.46
2023-03-15T00:19:18.304Z,97160.81
2023-03-15T00:21:48.638Z,97163.48
2023-03-15T00:24:19.226Z,97158.98
2023-03-15T00:26:49.277Z,97160.16
2023-03-15T00:29:19.455Z,97161.24
2023-03-15T00:31:51.274Z,97161.35
2023-03-15T00:34:24.341Z,97157.92
2023-03-15T00:36:54.460Z,97152.63
2023-03-15T00:39:25.825Z,97151.86
2023-03-15T00:41:56.474Z,97154.81
2023-03-15T00:44:27.894Z,97149.75
2023-03-15T00:46:58.328Z,97152.33
2023-03-15T00:49:28.643Z,97145.79
2023-03-15T00:51:58.861Z,97146.45
2023-03-15T00:54:29.404Z,97142.35
2023-03-15T00:56:59.852Z,97145.94
2023-03-15T00:59:34.660Z,97148.63
2023-03-15T01:02:06.628Z,97144.86
2023-03-15T01:04:36.788Z,97141.63
2023-03-15T01:07:07.444Z,97143.46
2023-03-15T01:09:37.589Z,97145.15
2023-03-15T01:12:09.388Z,97145.38
2023-03-15T01:14:40.346Z,97144.05
2023-03-15T01:17:11.238Z,97144.91
2023-03-15T01:19:41.502Z,97147.95
2023-03-15T01:22:11.673Z,97146.03
2023-03-15T01:24:41.761Z,97148.92
2023-03-15T01:27:12.508Z,97151.16
2023-03-15T01:29:43.001Z,97152.12
2023-03-15T01:32:13.165Z,97152.98
2023-03-15T01:34:43.997Z,97151.67
2023-03-15T01:37:14.614Z,97151.59
2023-03-15T01:39:44.871Z,97152.66
2023-03-15T01:42:15.316Z,97151.54
2023-03-15T01:44:53.620Z,97156.98
2023-03-15T01:47:26.268Z,97157.44
2023-03-15T01:50:01.269Z,97153.61
2023-03-15T01:52:34.519Z,97150.15
2023-03-15T01:55:09.844Z,97148.85
2023-03-15T01:57:42.418Z,97145.57
2023-03-15T02:00:15.797Z,97145.45
2023-03-15T02:02:50.238Z,97144.39
2023-03-15T02:05:22.693Z,97138.33
2023-03-15T02:07:54.703Z,97138.66
2023-03-15T02:10:29.985Z,97138.16
2023-03-15T02:13:00.395Z,97139.65
2023-03-15T02:15:30.854Z,97137.55
2023-03-15T02:18:01.154Z,97136.70
2023-03-15T02:20:35.970Z,97136.51
2023-03-15T02:23:09.353Z,97137.52
2023-03-15T02:25:43.495Z,97136.17
2023-03-15T02:28:15.891Z,97135.18
2023-03-15T02:30:46.851Z,97137.86
2023-03-15T02:33:22.568Z,97140.76
2023-03-15T02:35:53.261Z,97141.77
2023-03-15T02:38:23.503Z,97138.84
2023-03-15T02:40:55.603Z,97135.73
2023-03-15T02:43:28.178Z,97133.89
2023-03-15T02:45:58.649Z,97132.83
2023-03-15T02:48:29.341Z,97126.38
2023-03-15T02:50:59.965Z,97128.98
2023-03-15T02:53:30.987Z,97126.95
2023-03-15T02:56:01.387Z,97129.73
2023-03-15T02:58:32.416Z,97130.62
2023-03-15T03:01:03.476Z,97125.34
2023-03-15T03:03:33.617Z,97124.65
2023-03-15T03:06:04.201Z,97118.25
2023-03-15T03:08:34.379Z,97118.59
2023-03-15T03:11:05.476Z,97117.30
2023-03-15T03:13:35.932Z,97119.90
2023-03-15T03:16:06.822Z,97123.34
2023-03-15T03:18:37.131Z,97124.84
2023-03-15T03:21:08.776Z,97121.93
2023-03-15T03:23:39.100Z,97126.22
2023-03-15T03:26:16.260Z,97125.90
2023-03-15T03:28:48.238Z,97123.85
2023-03-15T03:31:20.756Z,97116.13
2023-03-15T03:33:51.238Z,97115.17
2023-03-15T03:36:21.346Z,97113.09
2023-03-15T03:38:52.209Z,97112.61
2023-03-15T03:41:22.620Z,97112.08
2023-03-15T03:43:53.014Z,97110.11
2023-03-15T03:46:23.409Z,97113.70
2023-03-15T03:48:53.559Z,97111.58
2023-03-15T03:51:24.017Z,97112.22
2023-03-15T03:53:54.305Z,97107.76
2023-03-15T03:56:24.472Z,97109.53
2023-03-15T03:58:55.155Z,97112.82
2023-03-15T04:01:25.796Z,97113.44
2023-03-15T04:03:56.463Z,97110.53
2023-03-15T04:06:27.152Z,97101.42
2023-03-15T04:08:57.304Z,97099.54
2023-03-15T04:11:30.244Z,97098.40
2023-03-15T04:14:01.074Z,97097.11
2023-03-15T04:16:31.584Z,97097.30
2023-03-15T04:19:01.844Z,97094.88
2023-03-15T04:21:32.251Z,97091.97
2023-03-15T04:24:02.945Z,97089.52
2023-03-15T04:26:34.265Z,97091.58
2023-03-15T04:29:05.425Z,97090.05
2023-03-15T04:31:37.570Z,97091.37
2023-03-15T04:34:07.664Z,97093.03
2023-03-15T04:36:37.794Z,97093.40
2023-03-15T04:39:07.862Z,97089.67
2023-03-15T04:41:39.280Z,97091.51
2023-03-15T04:44:09.570Z,97083.44
2023-03-15T04:46:39.779Z,97089.99
2023-03-15T04:49:10.696Z,97091.35
2023-03-15T04:51:40.988Z,97091.69
2023-03-15T04:54:11.294Z,97088.53
2023-03-15T04:56:41.879Z,97089.31
2023-03-15T04:59:11.999Z,97084.42
2023-03-15T05:01:42.578Z,97087.14
2023-03-15T05:04:13.745Z,97083.75
2023-03-15T05:06:43.962Z,97084.95
2023-03-15T05:09:18.780Z,97081.88
2023-03-15T05:11:49.462Z,97079.52
2023-03-15T05:14:19.786Z,97077.75
2023-03-15T05:16:55.293Z,97076.44
2023-03-15T05:19:25.895Z,97079.38
2023-03-15T05:21:56.163Z,97077.16
2023-03-15T05:24:27.296Z,97078.18
2023-03-15T05:26:58.191Z,97074.96
2023-03-15T05:29:28.434Z,97074.92
2023-03-15T05:31:58.534Z,97073.05
2023-03-15T05:34:28.990Z,97074.68
2023-03-15T05:36:59.280Z,97075.59
2023-03-15T05:39:34.308Z,97073.67
2023-03-15T05:42:05.079Z,97067.41
2023-03-15T05:44:35.472Z,97067.52
2023-03-15T05:47:06.014Z,97066.95
2023-03-15T05:49:36.091Z,97069.34
2023-03-15T05:52:07.539Z,97067.55
2023-03-15T05:54:37.637Z,97065.84
2023-03-15T05:57:08.623Z,97065.58
2023-03-15T05:59:38.657Z,97064.20
2023-03-15T06:02:09.472Z,97064.31
2023-03-15T06:04:39.688Z,97059.81
2023-03-15T06:07:10.195Z,97057.89
2023-03-15T06:09:40.459Z,97057.61
2023-03-15T06:12:11.611Z,97058.02
2023-03-15T06:14:41.765Z,97057.63
2023-03-15T06:17:12.562Z,97047.77
2023-03-15T06:19:43.127Z,97042.09
2023-03-15T06:22:13.468Z,97032.73
2023-03-15T06:24:43.650Z,97026.65
2023-03-15T06:27:14.124Z,97022.06
2023-03-15T06:29:45.182Z,97008.80
2023-03-15T06:32:15.256Z,97002.86
2023-03-15T06:34:45.758Z,96992.84
2023-03-15T06:37:22.723Z,96983.98
2023-03-15T06:39:55.839Z,96981.41
2023-03-15T06:42:26.034Z,96977.91
2023-03-15T06:44:56.195Z,96973.16
2023-03-15T06:47:26.851Z,96973.67
2023-03-15T06:49:57.082Z,96970.84
2023-03-15T06:52:27.641Z,96965.40
2023-03-15T06:54:57.780Z,96951.88
2023-03-15T06:57:28.003Z,96947.98
2023-03-15T06:59:59.383Z,96943.87
2023-03-15T07:02:33.976Z,96944.40
2023-03-15T07:05:05.931Z,96943.17
2023-03-15T07:07:36.372Z,96943.10
2023-03-15T07:10:07.665Z,96940.47
2023-03-15T07:12:38.242Z,96931.63
2023-03-15T07:15:12.181Z,96926.56
2023-03-15T07:17:42.511Z,96919.13
2023-03-15T07:20:14.004Z,96910.16
2023-03-15T07:22:45.415Z,96899.76
2023-03-15T07:25:15.627Z,96893.23
2023-03-15T07:27:46.000Z,96896.29
2023-03-15T07:30:16.817Z,96895.36
2023-03-15T07:32:47.435Z,96889.87
2023-03-15T07:35:18.432Z,96885.58
2023-03-15T07:37:49.208Z,96889.23
2023-03-15T07:40:20.092Z,96883.78
2023-03-15T07:42:50.314Z,96878.59
2023-03-15T07:45:20.995Z,96876.27
2023-03-15T07:47:51.292Z,96869.42
2023-03-15T07:50:22.316Z,96873.41
2023-03-15T07:52:52.520Z,96870.54
2023-03-15T07:55:22.668Z,96865.74
2023-03-15T07:57:53.462Z,96866.28
2023-03-15T08:00:24.724Z,96860.30
2023-03-15T08:02:54.877Z,96858.98
2023-03-15T08:05:27.759Z,96860.64
2023-03-15T08:07:59.297Z,96858.38
2023-03-15T08:10:29.676Z,96854.73
2023-03-15T08:12:59.672Z,96852.98
2023-03-15T08:15:29.951Z,96855.77
2023-03-15T08:18:00.345Z,96854.72
2023-03-15T08:20:33.570Z,96857.62
2023-03-15T08:23:04.141Z,96847.16
2023-03-15T08:25:34.359Z,96841.29
2023-03-15T08:28:04.526Z,96840.08
2023-03-15T08:30:34.930Z,96839.76
2023-03-15T08:33:05.481Z,96839.36
2023-03-15T08:35:35.569Z,96834.14
2023-03-15T08:38:06.312Z,96831.55
2023-03-15T08:40:37.763Z,96828.33
2023-03-15T08:43:09.933Z,96827.35
2023-03-15T08:45:56.639Z,96821.14
2023-03-15T08:48:32.029Z,96817.95
2023-03-15T08:51:05.367Z,96816.08
2023-03-15T08:53:35.533Z,96803.52
2023-03-15T08:56:06.110Z,96801.65
2023-03-15T08:58:36.233Z,96792.26
2023-03-15T09:01:07.145Z,96785.38
2023-03-15T09:03:37.447Z,96782.04
2023-03-15T09:06:09.051Z,96775.92
2023-03-15T09:08:39.270Z,96773.75
2023-03-15T09:11:09.344Z,96764.35
2023-03-15T09:13:39.436Z,96759.38
2023-03-15T09:16:09.991Z,96755.23
2023-03-15T09:18:41.255Z,96749.33
2023-03-15T09:21:11.584Z,96738.12
2023-03-15T09:23:41.972Z,96740.27
2023-03-15T09:26:13.110Z,96738.42
2023-03-15T09:28:43.269Z,96730.78
2023-03-15T09:31:13.464Z,96723.33
2023-03-15T09:33:46.136Z,96714.41
2023-03-15T09:36:16.475Z,96708.58
2023-03-15T09:38:47.608Z,96706.52
2023-03-15T09:41:21.902Z,96697.09
2023-03-15T09:44:03.572Z,96688.94
2023-03-15T09:46:36.824Z,96685.05
2023-03-15T09:49:12.110Z,96680.98
2023-03-15T09:51:47.719Z,96679.59
2023-03-15T09:54:20.097Z,96673.20
2023-03-15T09:56:55.988Z,96660.72
2023-03-15T09:59:30.124Z,96654.10
2023-03-15T10:02:03.751Z,96643.66
2023-03-15T10:04:37.111Z,96637.09
2023-03-15T10:07:12.975Z,96635.68
2023-03-15T10:09:43.477Z,96632.64
2023-03-15T10:12:16.965Z,96627.94
2023-03-15T10:15:18.719Z,96625.70
2023-03-15T10:17:56.982Z,96622.12
2023-03-15T10:20:28.824Z,96619.46
2023-03-15T10:23:01.048Z,96617.86
2023-03-15T10:25:32.737Z,96615.70
2023-03-15T10:28:05.166Z,96612.54
2023-03-15T10:30:38.239Z,96610.19
2023-03-15T10:33:17.904Z,96608.17
2023-03-15T10:35:48.482Z,96610.84
2023-03-15T10:38:20.718Z,96606.13
2023-03-15T10:40:53.079Z,96600.34
2023-03-15T10:43:25.838Z,96600.02
2023-03-15T10:46:02.399Z,96596.67
2023-03-15T10:48:33.934Z,96592.06
2023-03-15T10:51:07.580Z,96586.73
2023-03-15T10:53:38.724Z,96581.05
2023-03-15T10:56:14.746Z,96574.50
2023-03-15T10:59:05.576Z,96572.48
2023-03-15T11:01:40.518Z,96570.03
2023-03-15T11:04:16.744Z,96567.93
2023-03-15T11:06:49.056Z,96567.34
2023-03-15T11:09:22.225Z,96562.23
2023-03-15T11:11:56.354Z,96561.66
2023-03-15T11:14:26.875Z,96557.95
2023-03-15T11:16:58.502Z,96554.73
2023-03-15T11:19:30.921Z,96556.25
2023-03-15T11:22:03.752Z,96556.92
2023-03-15T11:24:35.272Z,96550.25
2023-03-15T11:27:12.380Z,96550.38
2023-03-15T11:29:45.729Z,96545.14
2023-03-15T11:32:18.642Z,96543.79
2023-03-15T11:34:54.633Z,96538.74
2023-03-15T11:37:29.091Z,96534.10
2023-03-15T11:40:11.251Z,96529.97
2023-03-15T11:42:48.209Z,96526.62
2023-03-15T11:45:24.229Z,96520.95
2023-03-15T11:47:56.796Z,96512.27
2023-03-15T11:50:27.275Z,96505.38
2023-03-15T11:53:03.205Z,96503.30
2023-03-15T11:55:34.293Z,96503.65
2023-03-15T11:58:31.030Z,96497.34
2023-03-15T12:01:04.855Z,96501.48
2023-03-15T12:03:39.567Z,96499.38
2023-03-15T12:06:35.883Z,96494.56
2023-03-15T12:09:46.668Z,96490.81
2023-03-15T12:12:38.774Z,96483.96
2023-03-15T12:15:31.786Z,96480.75
2023-03-15T12:18:06.087Z,96478.27
2023-03-15T12:20:38.572Z,96476.00
2023-03-15T12:23:21.177Z,96474.58
2023-03-15T12:25:57.376Z,96471.66
2023-03-15T12:28:31.417Z,96468.99
2023-03-15T12:31:04.072Z,96469.16
2023-03-15T12:33:44.400Z,96462.64
2023-03-15T12:36:21.909Z,96459.88
2023-03-15T12:39:04.215Z,96452.08
2023-03-15T12:41:40.070Z,96445.48
2023-03-15T12:44:39.746Z,96438.58
2023-03-15T12:47:11.038Z,96436.19
2023-03-15T12:49:43.158Z,96431.95
2023-03-15T12:52:33.555Z,96422.42
2023-03-15T12:55:11.888Z,96422.77
2023-03-15T12:57:48.862Z,96420.42
2023-03-15T13:00:21.786Z,96414.17
2023-03-15T13:02:54.535Z,96415.29
2023-03-15T13:05:31.459Z,96413.86
2023-03-15T13:08:07.430Z,96414.50
2023-03-15T13:10:55.696Z,96410.64
2023-03-15T13:13:47.608Z,96406.16
2023-03-15T13:16:27.600Z,96397.71
2023-03-15T13:19:05.230Z,96392.98
2023-03-15T13:21:37.555Z,96393.34
2023-03-15T13:24:14.450Z,96391.65
2023-03-15T13:26:52.554Z,96388.59
2023-03-15T13:29:27.100Z,96383.72
2023-03-15T13:32:03.416Z,96380.23
2023-03-15T13:34:34.099Z,96377.92
2023-03-15T13:37:04.364Z,96374.02
2023-03-15T13:39:35.477Z,96373.86
2023-03-15T13:42:07.387Z,96365.69
2023-03-15T13:44:37.575Z,96364.70
2023-03-15T13:47:08.208Z,96357.22
2023-03-15T13:49:38.484Z,96352.54
2023-03-15T13:52:14.416Z,96351.19
2023-03-15T13:54:45.646Z,96350.92
2023-03-15T13:57:17.969Z,96356.05
2023-03-15T13:59:52.335Z,96359.14
2023-03-15T14:02:25.639Z,96357.65
2023-03-15T14:04:59.368Z,96357.30
2023-03-15T14:07:34.243Z,96352.89
2023-03-15T14:10:26.986Z,96347.58
2023-03-15T14:12:58.100Z,96342.11
2023-03-15T14:15:37.373Z,96346.05
2023-03-15T14:18:18.024Z,96348.55
2023-03-15T14:20:54.069Z,96347.09
2023-03-15T14:23:25.849Z,96343.23
2023-03-15T14:25:57.925Z,96348.20
2023-03-15T14:28:28.239Z,96350.04
2023-03-15T14:31:00.070Z,96347.59
2023-03-15T14:33:33.296Z,96345.44
2023-03-15T14:36:06.299Z,96346.86
2023-03-15T14:38:40.901Z,96345.58
2023-03-15T14:41:33.520Z,96341.49
2023-03-15T14:44:04.516Z,96338.44
2023-03-15T14:46:34.908Z,96335.35
2023-03-15T14:49:05.173Z,96332.70
2023-03-15T14:51:35.481Z,96330.86
2023-03-15T14:54:23.498Z,96325.02
2023-03-15T14:56:54.005Z,96326.72
2023-03-15T14:59:24.885Z,96329.48
2023-03-15T15:01:57.784Z,96329.98
2023-03-15T15:04:30.788Z,96334.86
2023-03-15T15:07:03.198Z,96335.10
2023-03-15T15:09:34.148Z,96334.23
2023-03-15T15:12:04.850Z,96335.52
2023-03-15T15:14:35.055Z,96330.03
2023-03-15T15:17:05.316Z,96329.27
2023-03-15T15:19:36.065Z,96329.63
2023-03-15T15:22:06.587Z,96328.61
2023-03-15T15:24:37.117Z,96327.09
2023-03-15T15:27:09.617Z,96330.33
2023-03-15T15:29:40.190Z,96328.35
2023-03-15T15:32:10.649Z,96335.61
2023-03-15T15:34:42.239Z,96339.45
2023-03-15T15:37:12.845Z,96341.95
2023-03-15T15:39:43.733Z,96340.48
2023-03-15T15:42:14.099Z,96341.06
2023-03-15T15:44:45.537Z,96341.20
2023-03-15T15:47:15.969Z,96346.56
2023-03-15T15:49:46.048Z,96350.66
2023-03-15T15:52:16.838Z,96359.64
2023-03-15T15:54:48.301Z,96365.48
2023-03-15T15:57:22.115Z,96367.73
2023-03-15T15:59:52.784Z,96373.42
2023-03-15T16:02:25.794Z,96371.81
2023-03-15T16:04:56.414Z,96370.36
2023-03-15T16:07:26.937Z,96371.17
2023-03-15T16:09:57.950Z,96373.52
2023-03-15T16:12:29.304Z,96380.02
2023-03-15T16:14:59.629Z,96382.77
2023-03-15T16:17:29.958Z,96378.69
2023-03-15T16:20:00.558Z,96380.02
2023-03-15T16:22:31.641Z,96376.08
2023-03-15T16:25:02.288Z,96378.46
2023-03-15T16:27:33.105Z,96375.66
2023-03-15T16:30:04.426Z,96378.17
2023-03-15T16:32:43.977Z,96382.73
2023-03-15T16:35:15.193Z,96384.48
2023-03-15T16:37:45.737Z,96386.48
2023-03-15T16:40:21.334Z,96384.64
2023-03-15T16:42:51.968Z,96391.79
2023-03-15T16:45:22.563Z,96398.80
2023-03-15T16:47:56.028Z,96400.80
2023-03-15T16:50:26.437Z,96407.83
2023-03-15T16:52:58.514Z,96411.68
2023-03-15T16:55:32.565Z,96414.05
2023-03-15T16:58:05.171Z,96410.54
2023-03-15T17:00:35.569Z,96407.80
2023-03-15T17:03:07.529Z,96409.44
2023-03-15T17:05:38.337Z,96413.72
2023-03-15T17:08:13.213Z,96413.83
2023-03-15T17:10:43.784Z,96412.74
2023-03-15T17:13:16.787Z,96412.27
2023-03-15T17:15:47.140Z,96415.59
2023-03-15T17:18:19.407Z,96414.00
2023-03-15T17:20:50.655Z,96416.88
2023-03-15T17:23:21.267Z,96422.61
2023-03-15T17:25:52.020Z,96428.61
2023-03-15T17:28:22.798Z,96439.66
2023-03-15T17:30:59.656Z,96436.96
2023-03-15T17:33:39.423Z,96438.43
2023-03-15T17:36:12.476Z,96438.55
2023-03-15T17:38:43.027Z,96437.34
2023-03-15T17:41:19.602Z,96430.86
2023-03-15T17:43:51.057Z,96426.09
2023-03-15T17:46:22.336Z,96431.27
2023-03-15T17:48:53.630Z,96434.34
2023-03-15T17:51:26.140Z,96434.27
2023-03-15T17:53:57.590Z,96438.03
2023-03-15T17:56:29.074Z,96435.25
2023-03-15T17:58:59.687Z,96435.20
2023-03-15T18:01:30.728Z,96436.73
2023-03-15T18:04:01.756Z,96439.93
2023-03-15T18:06:32.594Z,96442.30
2023-03-15T18:09:03.812Z,96439.21
2023-03-15T18:11:36.256Z,96443.56
2023-03-15T18:14:06.495Z,96442.52
2023-03-15T18:16:36.806Z,96438.07
2023-03-15T18:19:07.288Z,96438.59
2023-03-15T18:21:38.038Z,96443.46
2023-03-15T18:24:11.598Z,96451.61
2023-03-15T18:26:42.079Z,96458.36
2023-03-15T18:29:13.485Z,96458.18
2023-03-15T18:31:44.609Z,96456.83
2023-03-15T18:34:17.345Z,96457.09
2023-03-15T18:36:48.516Z,96459.36
2023-03-15T18:39:20.615Z,96452.25
2023-03-15T18:41:51.415Z,96454.31
2023-03-15T18:44:22.078Z,96449.14
2023-03-15T18:46:53.767Z,96444.69
2023-03-15T18:49:25.217Z,96443.55
2023-03-15T18:51:57.207Z,96446.70
2023-03-15T18:54:29.196Z,96447.79
2023-03-15T18:57:01.390Z,96447.95
2023-03-15T18:59:31.816Z,96445.59
2023-03-15T19:02:04.530Z,96445.33
2023-03-15T19:04:36.885Z,96445.08
2023-03-15T19:07:09.723Z,96442.40
2023-03-15T19:09:40.165Z,96435.70
2023-03-15T19:12:11.167Z,96435.03
2023-03-15T19:14:41.654Z,96431.62
2023-03-15T19:17:12.120Z,96431.59
2023-03-15T19:19:42.967Z,96431.35
2023-03-15T19:22:13.106Z,96429.88
2023-03-15T19:24:43.353Z,96430.31
2023-03-15T19:27:14.150Z,96436.96
2023-03-15T19:29:45.267Z,96445.67
2023-03-15T19:32:15.891Z,96457.45
2023-03-15T19:34:46.300Z,96458.52
2023-03-15T19:37:20.358Z,96459.32
2023-03-15T19:39:51.154Z,96465.34
2023-03-15T19:42:21.287Z,96464.83
2023-03-15T19:44:51.572Z,96461.95
2023-03-15T19:47:22.885Z,96453.09
2023-03-15T19:49:54.710Z,96452.71
2023-03-15T19:52:26.925Z,96452.36
2023-03-15T19:55:00.732Z,96452.79
2023-03-15T19:57:33.687Z,96458.88
2023-03-15T20:00:05.660Z,96462.57
2023-03-15T20:02:37.411Z,96457.25
2023-03-15T20:05:09.488Z,96455.73
2023-03-15T20:07:42.183Z,96458.56
2023-03-15T20:10:15.974Z,96454.48
2023-03-15T20:12:48.022Z,96449.90
2023-03-15T20:15:19.354Z,96452.71
2023-03-15T20:17:49.662Z,96454.86
2023-03-15T20:20:21.164Z,96449.00
2023-03-15T20:22:51.896Z,96452.37
2023-03-15T20:25:22.426Z,96448.87
2023-03-15T20:27:52.679Z,96450.14
2023-03-15T20:30:23.716Z,96448.17
2023-03-15T20:32:55.231Z,96445.95
2023-03-15T20:35:25.947Z,96441.95
2023-03-15T20:37:56.697Z,96439.59
2023-03-15T20:40:27.144Z,96439.68
2023-03-15T20:43:06.219Z,96434.77
2023-03-15T20:45:37.761Z,96435.10
2023-03-15T20:48:08.162Z,96434.16
2023-03-15T20:50:38.547Z,96433.91
2023-03-15T20:53:09.173Z,96430.15
2023-03-15T20:55:39.317Z,96427.66
2023-03-15T20:58:09.833Z,96424.17
2023-03-15T21:00:40.708Z,96421.74
2023-03-15T21:03:12.928Z,96420.01
2023-03-15T21:05:45.312Z,96420.74
2023-03-15T21:08:17.176Z,96424.48
2023-03-15T21:10:47.523Z,96424.27
2023-03-15T21:13:17.640Z,96427.95
2023-03-15T21:15:48.119Z,96428.52
2023-03-15T21:18:19.539Z,96430.77
2023-03-15T21:20:57.833Z,96430.42
2023-03-15T21:23:30.863Z,96426.21
2023-03-15T21:26:03.001Z,96421.08
2023-03-15T21:28:33.814Z,96422.72
2023-03-15T21:31:04.018Z,96413.73
2023-03-15T21:33:34.793Z,96411.34
2023-03-15T21:36:05.491Z,96406.85
2023-03-15T21:38:36.277Z,96403.86
2023-03-15T21:41:10.006Z,96404.63
2023-03-15T21:43:40.695Z,96403.86
2023-03-15T21:46:12.616Z,96400.71
2023-03-15T21:48:43.475Z,96400.39
2023-03-15T21:51:14.662Z,96401.85
2023-03-15T21:53:46.192Z,96399.23
2023-03-15T21:56:16.570Z,96401.29
2023-03-15T21:58:47.048Z,96402.34
2023-03-15T22:01:17.481Z,96402.91
2023-03-15T22:03:48.024Z,96399.58
2023-03-15T22:06:18.526Z,96394.48
2023-03-15T22:08:49.374Z,96397.44
2023-03-15T22:11:22.476Z,96400.06
2023-03-15T22:13:53.344Z,96398.57
2023-03-15T22:16:24.028Z,96397.31
2023-03-15T22:18:54.387Z,96396.95
2023-03-15T22:21:24.586Z,96398.36
2023-03-15T22:23:55.116Z,96395.77
2023-03-15T22:26:25.638Z,96394.55
2023-03-15T22:28:56.446Z,96389.97
2023-03-15T22:31:26.785Z,96386.27
2023-03-15T22:33:57.505Z,96382.20
2023-03-15T22:36:27.756Z,96378.38
2023-03-15T22:38:58.209Z,96376.81
2023-03-15T22:41:28.727Z,96376.02
2023-03-15T22:43:59.143Z,96370.46
2023-03-15T22:46:34.863Z,96366.30
2023-03-15T22:49:06.164Z,96361.30
2023-03-15T22:51:39.420Z,96358.75
2023-03-15T22:54:09.877Z,96350.95
2023-03-15T22:56:41.093Z,96349.14
2023-03-15T22:59:11.652Z,96341.38
2023-03-15T23:01:42.046Z,96342.95
2023-03-15T23:04:12.471Z,96339.96
2023-03-15T23:06:42.942Z,96338.56
2023-03-15T23:09:13.859Z,96332.11
2023-03-15T23:11:44.879Z,96330.69
2023-03-15T23:14:15.157Z,96330.45
2023-03-15T23:16:45.536Z,96327.77
2023-03-15T23:19:15.814Z,96322.92
2023-03-15T23:21:46.256Z,96319.77
2023-03-15T23:24:17.184Z,96316.90
2023-03-15T23:26:47.578Z,96313.17
2023-03-15T23:29:18.243Z,96313.56
2023-03-15T23:31:49.030Z,96307.58
2023-03-15T23:34:19.299Z,96301.61
2023-03-15T23:36:49.600Z,96296.85
2023-03-15T23:39:21.056Z,96290.60
2023-03-15T23:41:51.566Z,96293.35
2023-03-15T23:44:22.414Z,96290.13
2023-03-15T23:46:53.410Z,96282.81
2023-03-15T23:49:26.713Z,96280.42
2023-03-15T23:51:57.152Z,96277.71
2023-03-15T23:54:27.776Z,96271.35
2023-03-15T23:56:58.545Z,96272.58
2023-03-15T23:59:28.972Z,96271.90
